sensor_id;sensor_type;location;lat;lon;timestamp;pressure;altitude;pressure_sealevel;temperature;humidity
69219;BME280;56232;53.384;-2.732;2024-01-06T00:01:31;100771.55;;;6.11;44.97
69219;BME280;56232;53.384;-2.732;2024-01-06T00:03:56;100778.13;;;5.49;44.81
69219;BME280;56232;53.384;-2.732;2024-01-06T00:06:23;100783.47;;;4.93;44.86
69219;BME280;56232;53.384;-2.732;2024-01-06T00:08:48;100786.08;;;5.95;44.88
69219;BME280;56232;53.384;-2.732;2024-01-06T00:11:13;100785.72;;;5.33;44.88
69219;BME280;56232;53.384;-2.732;2024-01-06T00:13:39;100784.21;;;5.31;44.87
69219;BME280;56232;53.384;-2.732;2024-01-06T00:16:05;100784.80;;;5.29;44.65
69219;BME280;56232;53.384;-2.732;2024-01-06T00:18:30;100787.63;;;5.81;44.65
69219;BME280;56232;53.384;-2.732;2024-01-06T00:20:56;100789.69;;;5.71;44.73
69219;BME280;56232;53.384;-2.732;2024-01-06T00:23:23;100790.15;;;5.61;44.77
69219;BME280;56232;53.384;-2.732;2024-01-06T00:25:47;100794.09;;;5.56;44.92
69219;BME280;56232;53.384;-2.732;2024-01-06T00:28:13;100795.97;;;4.91;44.90
69219;BME280;56232;53.384;-2.732;2024-01-06T00:30:39;100795.57;;;5.42;44.98
69219;BME280;56232;53.384;-2.732;2024-01-06T00:33:05;100796.84;;;4.78;44.93
69219;BME280;56232;53.384;-2.732;2024-01-06T00:35:30;100799.79;;;5.28;45.02
69219;BME280;56232;53.384;-2.732;2024-01-06T00:37:56;100801.18;;;5.24;45.06
69219;BME280;56232;53.384;-2.732;2024-01-06T00:40:23;100807.41;;;5.24;45.02
69219;BME280;56232;53.384;-2.732;2024-01-06T00:42:48;100810.98;;;5.22;44.99
69219;BME280;56232;53.384;-2.732;2024-01-06T00:45:13;100816.24;;;4.70;45.04
69219;BME280;56232;53.384;-2.732;2024-01-06T00:47:39;100820.82;;;5.37;44.88
69219;BME280;56232;53.384;-2.732;2024-01-06T00:50:05;100822.17;;;5.37;44.88
69219;BME280;56232;53.384;-2.732;2024-01-06T00:52:30;100824.82;;;5.35;44.77
69219;BME280;56232;53.384;-2.732;2024-01-06T00:54:56;100823.47;;;5.34;44.68
69219;BME280;56232;53.384;-2.732;2024-01-06T00:57:23;100827.99;;;5.26;44.79
69219;BME280;56232;53.384;-2.732;2024-01-06T00:59:47;100827.62;;;4.60;44.69
69219;BME280;56232;53.384;-2.732;2024-01-06T01:02:13;100830.81;;;5.16;44.78
69219;BME280;56232;53.384;-2.732;2024-01-06T01:04:39;100831.31;;;5.15;44.79
69219;BME280;56232;53.384;-2.732;2024-01-06T01:07:04;100833.83;;;5.09;44.59
69219;BME280;56232;53.384;-2.732;2024-01-06T01:09:30;100839.39;;;5.07;44.75
69219;BME280;56232;53.384;-2.732;2024-01-06T01:11:56;100840.38;;;5.03;44.66
69219;BME280;56232;53.384;-2.732;2024-01-06T01:14:23;100841.38;;;4.99;44.83
69219;BME280;56232;53.384;-2.732;2024-01-06T01:16:47;100840.69;;;4.98;44.87
69219;BME280;56232;53.384;-2.732;2024-01-06T01:19:13;100844.44;;;4.99;45.00
69219;BME280;56232;53.384;-2.732;2024-01-06T01:21:39;100847.73;;;4.39;44.96
69219;BME280;56232;53.384;-2.732;2024-01-06T01:24:05;100850.15;;;4.99;44.98
69219;BME280;56232;53.384;-2.732;2024-01-06T01:26:30;100852.51;;;5.00;44.93
69219;BME280;56232;53.384;-2.732;2024-01-06T01:28:56;100861.93;;;5.03;44.91
69219;BME280;56232;53.384;-2.732;2024-01-06T01:31:23;100863.24;;;5.08;44.89
69219;BME280;56232;53.384;-2.732;2024-01-06T01:33:47;100868.21;;;5.13;44.87
69219;BME280;56232;53.384;-2.732;2024-01-06T01:36:13;100871.97;;;5.16;44.64
69219;BME280;56232;53.384;-2.732;2024-01-06T01:38:39;100879.16;;;5.20;44.60
69219;BME280;56232;53.384;-2.732;2024-01-06T01:41:04;100878.39;;;4.66;44.55
69219;BME280;56232;53.384;-2.732;2024-01-06T01:43:30;100877.51;;;4.74;44.40
69219;BME280;56232;53.384;-2.732;2024-01-06T01:45:56;100879.72;;;4.83;44.28
69219;BME280;56232;53.384;-2.732;2024-01-06T01:48:24;100880.48;;;5.42;44.18
69219;BME280;56232;53.384;-2.732;2024-01-06T01:50:48;100880.89;;;5.95;44.11
69219;BME280;56232;53.384;-2.732;2024-01-06T01:53:13;100881.97;;;5.39;43.98
69219;BME280;56232;53.384;-2.732;2024-01-06T01:55:39;100881.66;;;5.39;43.82
69219;BME280;56232;53.384;-2.732;2024-01-06T01:58:05;100885.04;;;5.32;43.67
69219;BME280;56232;53.384;-2.732;2024-01-06T02:00:30;100887.79;;;5.23;43.65
69219;BME280;56232;53.384;-2.732;2024-01-06T02:02:56;100892.03;;;5.20;43.64
69219;BME280;56232;53.384;-2.732;2024-01-06T02:05:23;100893.47;;;5.12;43.56
69219;BME280;56232;53.384;-2.732;2024-01-06T02:07:47;100897.01;;;4.41;43.59
69219;BME280;56232;53.384;-2.732;2024-01-06T02:10:13;100899.37;;;4.88;43.67
69219;BME280;56232;53.384;-2.732;2024-01-06T02:12:39;100900.61;;;4.84;43.76
69219;BME280;56232;53.384;-2.732;2024-01-06T02:15:05;100905.63;;;4.81;43.74
69219;BME280;56232;53.384;-2.732;2024-01-06T02:17:30;100906.94;;;4.75;43.81
69219;BME280;56232;53.384;-2.732;2024-01-06T02:19:56;100909.81;;;4.79;43.77
69219;BME280;56232;53.384;-2.732;2024-01-06T02:22:23;100915.28;;;4.77;43.66
69219;BME280;56232;53.384;-2.732;2024-01-06T02:24:47;100918.82;;;4.74;43.58
69219;BME280;56232;53.384;-2.732;2024-01-06T02:27:14;100925.87;;;4.70;43.43
69219;BME280;56232;53.384;-2.732;2024-01-06T02:29:39;100930.19;;;4.63;43.44
69219;BME280;56232;53.384;-2.732;2024-01-06T02:32:05;100934.32;;;4.55;43.37
69219;BME280;56232;53.384;-2.732;2024-01-06T02:34:30;100941.39;;;5.57;43.29
69219;BME280;56232;53.384;-2.732;2024-01-06T02:36:56;100945.36;;;4.43;43.26
69219;BME280;56232;53.384;-2.732;2024-01-06T02:39:23;100950.21;;;4.41;43.30
69219;BME280;56232;53.384;-2.732;2024-01-06T02:41:48;100951.18;;;4.90;43.26
69219;BME280;56232;53.384;-2.732;2024-01-06T02:44:13;100953.61;;;4.33;43.20
69219;BME280;56232;53.384;-2.732;2024-01-06T02:46:39;100953.26;;;4.28;43.16
69219;BME280;56232;53.384;-2.732;2024-01-06T02:49:05;100953.65;;;5.33;43.16
69219;BME280;56232;53.384;-2.732;2024-01-06T02:51:31;100956.23;;;4.63;43.22
69219;BME280;56232;53.384;-2.732;2024-01-06T02:53:56;100958.22;;;5.19;43.22
69219;BME280;56232;53.384;-2.732;2024-01-06T02:56:23;100962.53;;;4.53;43.25
69219;BME280;56232;53.384;-2.732;2024-01-06T02:58:48;100964.38;;;4.01;43.22
69219;BME280;56232;53.384;-2.732;2024-01-06T03:01:14;100965.87;;;5.12;43.13
69219;BME280;56232;53.384;-2.732;2024-01-06T03:03:40;100964.93;;;5.05;43.15
69219;BME280;56232;53.384;-2.732;2024-01-06T03:06:06;100965.52;;;5.02;43.18
69219;BME280;56232;53.384;-2.732;2024-01-06T03:08:31;100970.73;;;4.39;43.25
69219;BME280;56232;53.384;-2.732;2024-01-06T03:10:57;100971.63;;;4.36;43.24
69219;BME280;56232;53.384;-2.732;2024-01-06T03:13:24;100974.96;;;4.92;43.34
69219;BME280;56232;53.384;-2.732;2024-01-06T03:15:48;100975.75;;;4.31;43.39
69219;BME280;56232;53.384;-2.732;2024-01-06T03:18:14;100979.77;;;3.82;43.44
69219;BME280;56232;53.384;-2.732;2024-01-06T03:20:40;100982.95;;;4.91;43.44
69219;BME280;56232;53.384;-2.732;2024-01-06T03:23:06;100984.14;;;4.86;43.53
69219;BME280;56232;53.384;-2.732;2024-01-06T03:25:31;100984.87;;;3.76;43.51
69219;BME280;56232;53.384;-2.732;2024-01-06T03:27:57;100986.78;;;4.89;43.50
69219;BME280;56232;53.384;-2.732;2024-01-06T03:30:24;100986.12;;;4.86;43.58
69219;BME280;56232;53.384;-2.732;2024-01-06T03:32:48;100984.65;;;3.80;43.55
69219;BME280;56232;53.384;-2.732;2024-01-06T03:35:14;100986.72;;;4.95;43.53
69219;BME280;56232;53.384;-2.732;2024-01-06T03:37:40;100989.30;;;4.94;43.51
69219;BME280;56232;53.384;-2.732;2024-01-06T03:40:06;100989.71;;;4.94;43.54
69219;BME280;56232;53.384;-2.732;2024-01-06T03:42:31;100992.21;;;3.86;43.42
69219;BME280;56232;53.384;-2.732;2024-01-06T03:44:57;100994.31;;;4.94;43.40
69219;BME280;56232;53.384;-2.732;2024-01-06T03:47:23;100992.61;;;4.91;43.37
69219;BME280;56232;53.384;-2.732;2024-01-06T03:49:48;100993.18;;;4.27;43.33
69219;BME280;56232;53.384;-2.732;2024-01-06T03:52:14;100998.86;;;4.87;43.32
69219;BME280;56232;53.384;-2.732;2024-01-06T03:54:40;101000.28;;;4.27;43.29
69219;BME280;56232;53.384;-2.732;2024-01-06T03:57:05;101000.78;;;3.78;43.22
69219;BME280;56232;53.384;-2.732;2024-01-06T03:59:31;101005.54;;;4.85;43.16
69219;BME280;56232;53.384;-2.732;2024-01-06T04:01:57;101007.42;;;4.21;43.04
69219;BME280;56232;53.384;-2.732;2024-01-06T04:04:24;101010.60;;;4.77;42.95
69219;BME280;56232;53.384;-2.732;2024-01-06T04:06:49;101014.35;;;4.75;42.88
69219;BME280;56232;53.384;-2.732;2024-01-06T04:09:14;101017.12;;;4.69;42.81
69219;BME280;56232;53.384;-2.732;2024-01-06T04:11:40;101022.83;;;4.64;42.88
69219;BME280;56232;53.384;-2.732;2024-01-06T04:14:06;101019.10;;;4.58;42.88
69219;BME280;56232;53.384;-2.732;2024-01-06T04:16:32;101019.94;;;4.55;42.78
69219;BME280;56232;53.384;-2.732;2024-01-06T04:18:58;101020.22;;;4.40;42.72
69219;BME280;56232;53.384;-2.732;2024-01-06T04:21:24;101024.43;;;4.30;42.71
69219;BME280;56232;53.384;-2.732;2024-01-06T04:23:49;101026.89;;;4.24;42.73
69219;BME280;56232;53.384;-2.732;2024-01-06T04:26:15;101025.71;;;4.19;42.72
69219;BME280;56232;53.384;-2.732;2024-01-06T04:28:41;101027.75;;;4.11;42.73
69219;BME280;56232;53.384;-2.732;2024-01-06T04:31:06;101028.98;;;4.06;42.68
69219;BME280;56232;53.384;-2.732;2024-01-06T04:33:32;101033.69;;;4.01;42.68
69219;BME280;56232;53.384;-2.732;2024-01-06T04:35:58;101034.43;;;3.96;42.66
69219;BME280;56232;53.384;-2.732;2024-01-06T04:38:24;101038.86;;;4.33;42.68
69219;BME280;56232;53.384;-2.732;2024-01-06T04:40:49;101043.12;;;3.69;42.75
69219;BME280;56232;53.384;-2.732;2024-01-06T04:43:15;101046.58;;;4.13;42.79
69219;BME280;56232;53.384;-2.732;2024-01-06T04:45:41;101049.92;;;3.58;42.69
69219;BME280;56232;53.384;-2.732;2024-01-06T04:48:07;101052.35;;;4.06;42.70
69219;BME280;56232;53.384;-2.732;2024-01-06T04:50:32;101054.31;;;4.06;42.64
69219;BME280;56232;53.384;-2.732;2024-01-06T04:52:58;101054.18;;;4.52;42.63
69219;BME280;56232;53.384;-2.732;2024-01-06T04:55:24;101058.02;;;3.95;42.65
69219;BME280;56232;53.384;-2.732;2024-01-06T04:57:49;101057.65;;;3.93;42.59
69219;BME280;56232;53.384;-2.732;2024-01-06T05:00:16;101053.97;;;3.38;42.53
69219;BME280;56232;53.384;-2.732;2024-01-06T05:02:41;101055.12;;;4.31;42.49
69219;BME280;56232;53.384;-2.732;2024-01-06T05:05:07;101058.61;;;3.73;42.44
69219;BME280;56232;53.384;-2.732;2024-01-06T05:07:33;101057.35;;;3.13;42.65
69219;BME280;56232;53.384;-2.732;2024-01-06T05:09:58;101057.23;;;3.61;42.70
69219;BME280;56232;53.384;-2.732;2024-01-06T05:12:25;101061.02;;;4.07;42.72
69219;BME280;56232;53.384;-2.732;2024-01-06T05:14:50;101058.79;;;4.06;42.71
69219;BME280;56232;53.384;-2.732;2024-01-06T05:17:16;101060.34;;;3.60;42.57
69219;BME280;56232;53.384;-2.732;2024-01-06T05:19:42;101063.65;;;4.08;42.48
69219;BME280;56232;53.384;-2.732;2024-01-06T05:22:07;101066.59;;;3.55;42.49
69219;BME280;56232;53.384;-2.732;2024-01-06T05:24:33;101069.48;;;4.02;42.48
69219;BME280;56232;53.384;-2.732;2024-01-06T05:26:59;101071.60;;;3.52;42.43
69219;BME280;56232;53.384;-2.732;2024-01-06T05:29:25;101071.10;;;3.96;42.47
69219;BME280;56232;53.384;-2.732;2024-01-06T05:31:51;101072.43;;;3.97;42.50
69219;BME280;56232;53.384;-2.732;2024-01-06T05:34:16;101074.03;;;3.93;42.56
69219;BME280;56232;53.384;-2.732;2024-01-06T05:36:42;101075.52;;;3.42;42.58
69219;BME280;56232;53.384;-2.732;2024-01-06T05:39:08;101076.36;;;3.40;42.57
69219;BME280;56232;53.384;-2.732;2024-01-06T05:41:37;101081.12;;;3.86;42.54
69219;BME280;56232;53.384;-2.732;2024-01-06T05:44:00;101086.54;;;2.84;42.57
69219;BME280;56232;53.384;-2.732;2024-01-06T05:46:25;101090.69;;;3.82;42.56
69219;BME280;56232;53.384;-2.732;2024-01-06T05:48:51;101092.47;;;3.85;42.47
69219;BME280;56232;53.384;-2.732;2024-01-06T05:51:17;101095.02;;;3.84;42.41
69219;BME280;56232;53.384;-2.732;2024-01-06T05:53:43;101097.37;;;3.31;42.34
69219;BME280;56232;53.384;-2.732;2024-01-06T05:56:09;101102.81;;;3.77;42.28
69219;BME280;56232;53.384;-2.732;2024-01-06T05:58:34;101106.54;;;3.19;42.27
69219;BME280;56232;53.384;-2.732;2024-01-06T06:01:00;101108.33;;;3.16;42.29
69219;BME280;56232;53.384;-2.732;2024-01-06T06:03:27;101111.90;;;3.14;42.29
69219;BME280;56232;53.384;-2.732;2024-01-06T06:05:52;101113.48;;;3.63;42.28
69219;BME280;56232;53.384;-2.732;2024-01-06T06:08:18;101115.26;;;3.59;42.28
69219;BME280;56232;53.384;-2.732;2024-01-06T06:10:44;101116.65;;;3.51;42.28
69219;BME280;56232;53.384;-2.732;2024-01-06T06:13:09;101117.08;;;3.02;42.21
69219;BME280;56232;53.384;-2.732;2024-01-06T06:15:35;101123.07;;;3.01;42.16
69219;BME280;56232;53.384;-2.732;2024-01-06T06:18:01;101123.10;;;2.98;42.17
69219;BME280;56232;53.384;-2.732;2024-01-06T06:20:26;101126.73;;;2.88;42.23
69219;BME280;56232;53.384;-2.732;2024-01-06T06:22:52;101128.26;;;3.35;42.25
69219;BME280;56232;53.384;-2.732;2024-01-06T06:25:18;101129.52;;;3.30;42.39
69219;BME280;56232;53.384;-2.732;2024-01-06T06:27:44;101137.27;;;3.33;42.42
69219;BME280;56232;53.384;-2.732;2024-01-06T06:30:10;101141.03;;;2.84;42.36
69219;BME280;56232;53.384;-2.732;2024-01-06T06:32:35;101143.28;;;2.83;42.31
69219;BME280;56232;53.384;-2.732;2024-01-06T06:35:01;101144.15;;;3.35;42.26
69219;BME280;56232;53.384;-2.732;2024-01-06T06:37:27;101149.82;;;3.33;42.23
69219;BME280;56232;53.384;-2.732;2024-01-06T06:39:53;101152.53;;;3.29;42.21
69219;BME280;56232;53.384;-2.732;2024-01-06T06:42:19;101156.03;;;3.25;42.20
69219;BME280;56232;53.384;-2.732;2024-01-06T06:44:45;101159.88;;;3.20;42.13
69219;BME280;56232;53.384;-2.732;2024-01-06T06:47:10;101170.68;;;3.16;42.19
69219;BME280;56232;53.384;-2.732;2024-01-06T06:49:36;101174.96;;;2.62;42.24
69219;BME280;56232;53.384;-2.732;2024-01-06T06:52:03;101181.22;;;3.10;42.29
69219;BME280;56232;53.384;-2.732;2024-01-06T06:54:28;101187.42;;;3.02;42.54
69219;BME280;56232;53.384;-2.732;2024-01-06T06:56:54;101193.16;;;2.01;42.73
69219;BME280;56232;53.384;-2.732;2024-01-06T06:59:20;101195.07;;;3.07;42.72
69219;BME280;56232;53.384;-2.732;2024-01-06T07:01:45;101197.78;;;3.11;42.59
69219;BME280;56232;53.384;-2.732;2024-01-06T07:04:11;101198.32;;;2.51;42.35
69219;BME280;56232;53.384;-2.732;2024-01-06T07:06:37;101204.64;;;2.99;42.45
69219;BME280;56232;53.384;-2.732;2024-01-06T07:09:02;101205.83;;;3.60;42.47
69219;BME280;56232;53.384;-2.732;2024-01-06T07:11:28;101211.59;;;2.98;42.41
69219;BME280;56232;53.384;-2.732;2024-01-06T07:13:54;101214.50;;;2.96;42.30
69219;BME280;56232;53.384;-2.732;2024-01-06T07:16:20;101218.03;;;2.95;42.30
69219;BME280;56232;53.384;-2.732;2024-01-06T07:18:45;101222.32;;;2.95;42.32
69219;BME280;56232;53.384;-2.732;2024-01-06T07:21:12;101227.64;;;2.43;42.36
69219;BME280;56232;53.384;-2.732;2024-01-06T07:23:37;101231.31;;;2.96;42.36
69219;BME280;56232;53.384;-2.732;2024-01-06T07:26:03;101238.68;;;2.99;42.28
69219;BME280;56232;53.384;-2.732;2024-01-06T07:28:29;101241.55;;;2.99;42.23
69219;BME280;56232;53.384;-2.732;2024-01-06T07:30:54;101240.78;;;2.97;42.20
69219;BME280;56232;53.384;-2.732;2024-01-06T07:33:20;101241.92;;;2.93;42.19
69219;BME280;56232;53.384;-2.732;2024-01-06T07:35:46;101242.38;;;2.94;42.15
69219;BME280;56232;53.384;-2.732;2024-01-06T07:38:11;101243.85;;;2.93;42.11
69219;BME280;56232;53.384;-2.732;2024-01-06T07:40:37;101245.75;;;2.87;42.16
69219;BME280;56232;53.384;-2.732;2024-01-06T07:43:03;101250.55;;;2.88;42.19
69219;BME280;56232;53.384;-2.732;2024-01-06T07:45:28;101252.51;;;2.90;42.12
69219;BME280;56232;53.384;-2.732;2024-01-06T07:47:54;101259.76;;;2.87;42.11
69219;BME280;56232;53.384;-2.732;2024-01-06T07:50:20;101267.01;;;2.87;42.06
69219;BME280;56232;53.384;-2.732;2024-01-06T07:52:46;101269.69;;;2.90;42.09
69219;BME280;56232;53.384;-2.732;2024-01-06T07:55:12;101273.52;;;2.92;42.02
69219;BME280;56232;53.384;-2.732;2024-01-06T07:57:38;101274.88;;;2.88;42.01
69219;BME280;56232;53.384;-2.732;2024-01-06T08:00:04;101278.91;;;2.87;42.01
69219;BME280;56232;53.384;-2.732;2024-01-06T08:02:29;101282.51;;;2.82;42.00
69219;BME280;56232;53.384;-2.732;2024-01-06T08:04:55;101285.33;;;2.77;42.02
69219;BME280;56232;53.384;-2.732;2024-01-06T08:07:21;101288.78;;;2.76;42.02
69219;BME280;56232;53.384;-2.732;2024-01-06T08:09:46;101291.67;;;2.75;42.07
69219;BME280;56232;53.384;-2.732;2024-01-06T08:12:12;101294.48;;;2.77;42.07
69219;BME280;56232;53.384;-2.732;2024-01-06T08:14:38;101299.13;;;2.78;42.08
69219;BME280;56232;53.384;-2.732;2024-01-06T08:17:03;101305.31;;;2.81;42.09
69219;BME280;56232;53.384;-2.732;2024-01-06T08:19:29;101310.22;;;2.80;42.09
69219;BME280;56232;53.384;-2.732;2024-01-06T08:21:55;101319.66;;;2.74;42.16
69219;BME280;56232;53.384;-2.732;2024-01-06T08:24:21;101323.23;;;2.55;42.56
69219;BME280;56232;53.384;-2.732;2024-01-06T08:26:47;101325.68;;;2.44;42.50
69219;BME280;56232;53.384;-2.732;2024-01-06T08:29:12;101329.08;;;3.39;43.13
69219;BME280;56232;53.384;-2.732;2024-01-06T08:31:38;101330.18;;;2.96;43.33
69219;BME280;56232;53.384;-2.732;2024-01-06T08:34:04;101331.01;;;2.53;43.16
69219;BME280;56232;53.384;-2.732;2024-01-06T08:36:30;101333.85;;;2.74;43.00
69219;BME280;56232;53.384;-2.732;2024-01-06T08:38:56;101337.82;;;2.94;42.83
69219;BME280;56232;53.384;-2.732;2024-01-06T08:41:22;101341.81;;;3.03;42.59
69219;BME280;56232;53.384;-2.732;2024-01-06T08:43:47;101346.91;;;2.62;42.57
69219;BME280;56232;53.384;-2.732;2024-01-06T08:46:13;101349.43;;;3.14;42.57
69219;BME280;56232;53.384;-2.732;2024-01-06T08:48:39;101354.08;;;3.23;42.57
69219;BME280;56232;53.384;-2.732;2024-01-06T08:51:04;101360.86;;;3.31;42.47
69219;BME280;56232;53.384;-2.732;2024-01-06T08:53:30;101368.19;;;2.78;42.19
69219;BME280;56232;53.384;-2.732;2024-01-06T08:55:56;101374.64;;;3.21;42.49
69219;BME280;56232;53.384;-2.732;2024-01-06T08:58:22;101383.40;;;3.28;42.46
69219;BME280;56232;53.384;-2.732;2024-01-06T09:00:48;101385.24;;;3.38;42.39
69219;BME280;56232;53.384;-2.732;2024-01-06T09:03:13;101391.31;;;3.51;42.40
69219;BME280;56232;53.384;-2.732;2024-01-06T09:05:39;101392.93;;;3.60;42.35
69219;BME280;56232;53.384;-2.732;2024-01-06T09:08:06;101396.93;;;3.65;42.36
69219;BME280;56232;53.384;-2.732;2024-01-06T09:10:30;101399.97;;;3.14;42.53
69219;BME280;56232;53.384;-2.732;2024-01-06T09:12:56;101400.23;;;3.21;42.68
69219;BME280;56232;53.384;-2.732;2024-01-06T09:15:22;101401.11;;;3.34;42.57
69219;BME280;56232;53.384;-2.732;2024-01-06T09:17:47;101400.25;;;3.94;42.53
69219;BME280;56232;53.384;-2.732;2024-01-06T09:20:13;101405.62;;;4.05;42.19
69219;BME280;56232;53.384;-2.732;2024-01-06T09:22:39;101411.61;;;3.58;42.14
69219;BME280;56232;53.384;-2.732;2024-01-06T09:25:06;101418.56;;;4.10;42.35
69219;BME280;56232;53.384;-2.732;2024-01-06T09:27:31;101422.08;;;4.30;42.45
69219;BME280;56232;53.384;-2.732;2024-01-06T09:29:56;101426.95;;;4.09;42.49
69219;BME280;56232;53.384;-2.732;2024-01-06T09:32:23;101430.22;;;4.44;42.46
69219;BME280;56232;53.384;-2.732;2024-01-06T09:34:49;101430.48;;;4.17;42.42
69219;BME280;56232;53.384;-2.732;2024-01-06T09:37:14;101436.39;;;4.52;42.30
69219;BME280;56232;53.384;-2.732;2024-01-06T09:39:40;101439.03;;;4.90;42.07
69219;BME280;56232;53.384;-2.732;2024-01-06T09:42:05;101445.42;;;5.25;41.78
69219;BME280;56232;53.384;-2.732;2024-01-06T09:44:33;101442.02;;;5.80;41.56
69219;BME280;56232;53.384;-2.732;2024-01-06T09:46:58;101446.40;;;5.28;41.27
69219;BME280;56232;53.384;-2.732;2024-01-06T09:49:23;101447.64;;;5.79;41.07
69219;BME280;56232;53.384;-2.732;2024-01-06T09:51:49;101441.88;;;6.21;41.16
69219;BME280;56232;53.384;-2.732;2024-01-06T09:54:14;101441.75;;;6.42;41.35
69219;BME280;56232;53.384;-2.732;2024-01-06T09:56:40;101440.29;;;5.97;41.48
69219;BME280;56232;53.384;-2.732;2024-01-06T09:59:06;101444.73;;;6.69;41.67
69219;BME280;56232;53.384;-2.732;2024-01-06T10:01:31;101446.62;;;6.22;41.73
69219;BME280;56232;53.384;-2.732;2024-01-06T10:03:57;101449.60;;;5.79;41.81
69219;BME280;56232;53.384;-2.732;2024-01-06T10:06:23;101450.21;;;5.94;41.71
69219;BME280;56232;53.384;-2.732;2024-01-06T10:08:49;101451.76;;;6.08;41.58
69219;BME280;56232;53.384;-2.732;2024-01-06T10:11:13;101457.41;;;6.15;41.46
69219;BME280;56232;53.384;-2.732;2024-01-06T10:13:39;101466.11;;;6.12;41.37
69219;BME280;56232;53.384;-2.732;2024-01-06T10:16:05;101467.35;;;5.98;41.30
69219;BME280;56232;53.384;-2.732;2024-01-06T10:18:31;101472.10;;;6.14;41.54
69219;BME280;56232;53.384;-2.732;2024-01-06T10:20:56;101478.31;;;5.38;41.84
69219;BME280;56232;53.384;-2.732;2024-01-06T10:23:23;101480.87;;;6.94;42.13
69219;BME280;56232;53.384;-2.732;2024-01-06T10:25:47;101487.18;;;5.28;42.27
69219;BME280;56232;53.384;-2.732;2024-01-06T10:28:12;101491.51;;;5.67;42.44
69219;BME280;56232;53.384;-2.732;2024-01-06T10:30:38;101495.90;;;5.52;42.32
69219;BME280;56232;53.384;-2.732;2024-01-06T10:33:09;101496.10;;;5.78;42.43
69219;BME280;56232;53.384;-2.732;2024-01-06T10:35:29;101496.65;;;6.14;42.65
69219;BME280;56232;53.384;-2.732;2024-01-06T10:37:54;101498.95;;;5.75;42.57
69219;BME280;56232;53.384;-2.732;2024-01-06T10:40:20;101499.33;;;5.81;42.35
69219;BME280;56232;53.384;-2.732;2024-01-06T10:42:45;101498.06;;;5.85;42.40
69219;BME280;56232;53.384;-2.732;2024-01-06T10:45:11;101499.63;;;5.34;42.16
69219;BME280;56232;53.384;-2.732;2024-01-06T10:47:36;101507.62;;;5.45;42.32
69219;BME280;56232;53.384;-2.732;2024-01-06T10:50:01;101506.80;;;6.24;42.12
69219;BME280;56232;53.384;-2.732;2024-01-06T10:52:27;101508.12;;;6.20;41.88
69219;BME280;56232;53.384;-2.732;2024-01-06T10:54:54;101506.14;;;5.65;42.05
69219;BME280;56232;53.384;-2.732;2024-01-06T10:57:18;101509.46;;;5.24;42.02
69219;BME280;56232;53.384;-2.732;2024-01-06T10:59:42;101506.55;;;5.86;41.85
69219;BME280;56232;53.384;-2.732;2024-01-06T11:02:09;101508.46;;;6.03;41.82
69219;BME280;56232;53.384;-2.732;2024-01-06T11:04:33;101506.04;;;6.81;41.77
69219;BME280;56232;53.384;-2.732;2024-01-06T11:06:58;101505.80;;;5.83;41.82
69219;BME280;56232;53.384;-2.732;2024-01-06T11:09:29;101507.34;;;6.48;41.73
69219;BME280;56232;53.384;-2.732;2024-01-06T11:11:49;101511.15;;;5.73;41.62
69219;BME280;56232;53.384;-2.732;2024-01-06T11:14:19;101512.68;;;6.92;41.54
69219;BME280;56232;53.384;-2.732;2024-01-06T11:16:40;101515.79;;;6.57;41.51
69219;BME280;56232;53.384;-2.732;2024-01-06T11:21:33;101520.41;;;7.04;41.09
69219;BME280;56232;53.384;-2.732;2024-01-06T11:26:23;101529.42;;;7.12;41.12
69219;BME280;56232;53.384;-2.732;2024-01-06T11:28:50;101527.62;;;7.00;41.41
69219;BME280;56232;53.384;-2.732;2024-01-06T11:31:13;101528.77;;;7.42;41.63
69219;BME280;56232;53.384;-2.732;2024-01-06T11:33:41;101527.33;;;7.41;41.83
69219;BME280;56232;53.384;-2.732;2024-01-06T11:36:08;101527.23;;;7.00;41.96
69219;BME280;56232;53.384;-2.732;2024-01-06T11:38:33;101526.87;;;7.14;41.81
69219;BME280;56232;53.384;-2.732;2024-01-06T11:40:55;101526.11;;;7.28;41.74
69219;BME280;56232;53.384;-2.732;2024-01-06T11:43:25;101532.41;;;6.36;41.83
69219;BME280;56232;53.384;-2.732;2024-01-06T11:45:45;101532.25;;;7.07;41.78
69219;BME280;56232;53.384;-2.732;2024-01-06T11:48:11;101533.53;;;7.73;41.91
69219;BME280;56232;53.384;-2.732;2024-01-06T11:50:38;101532.38;;;7.86;41.79
69219;BME280;56232;53.384;-2.732;2024-01-06T11:53:03;101533.08;;;8.08;41.80
69219;BME280;56232;53.384;-2.732;2024-01-06T11:55:28;101534.60;;;7.22;41.83
69219;BME280;56232;53.384;-2.732;2024-01-06T11:57:54;101528.77;;;7.36;41.73
69219;BME280;56232;53.384;-2.732;2024-01-06T12:00:20;101524.99;;;7.38;41.78
69219;BME280;56232;53.384;-2.732;2024-01-06T12:02:45;101523.48;;;7.93;41.87
69219;BME280;56232;53.384;-2.732;2024-01-06T12:05:14;101524.05;;;7.84;41.96
69219;BME280;56232;53.384;-2.732;2024-01-06T12:07:41;101523.28;;;7.13;42.24
69219;BME280;56232;53.384;-2.732;2024-01-06T12:10:03;101521.06;;;7.13;42.39
69219;BME280;56232;53.384;-2.732;2024-01-06T12:12:28;101516.49;;;7.20;42.50
69219;BME280;56232;53.384;-2.732;2024-01-06T12:14:53;101515.29;;;8.41;42.61
69219;BME280;56232;53.384;-2.732;2024-01-06T12:17:21;101511.73;;;8.02;42.45
69219;BME280;56232;53.384;-2.732;2024-01-06T12:19:44;101510.08;;;7.59;42.38
69219;BME280;56232;53.384;-2.732;2024-01-06T12:22:11;101510.92;;;7.84;42.21
69219;BME280;56232;53.384;-2.732;2024-01-06T12:24:34;101513.65;;;7.90;42.39
69219;BME280;56232;53.384;-2.732;2024-01-06T12:27:00;101517.53;;;7.98;42.34
69219;BME280;56232;53.384;-2.732;2024-01-06T12:29:31;101519.65;;;8.05;42.16
69219;BME280;56232;53.384;-2.732;2024-01-06T12:31:51;101521.77;;;8.08;41.91
69219;BME280;56232;53.384;-2.732;2024-01-06T12:34:17;101520.53;;;8.05;42.43
69219;BME280;56232;53.384;-2.732;2024-01-06T12:36:43;101522.59;;;8.11;42.71
69219;BME280;56232;53.384;-2.732;2024-01-06T12:39:11;101522.81;;;8.20;42.70
69219;BME280;56232;53.384;-2.732;2024-01-06T12:41:36;101524.66;;;8.26;42.57
69219;BME280;56232;53.384;-2.732;2024-01-06T12:44:00;101525.99;;;8.40;42.93
69219;BME280;56232;53.384;-2.732;2024-01-06T12:46:26;101531.76;;;8.56;42.64